sensor_id;sensor_type;location;lat;lon;timestamp;pressure;altitude;pressure_sealevel;temperature;humidity
12987;BME280;58897;51.960;5.582;2023-07-13T00:00:11;101029.88;;;17.31;100.00
12987;BME280;58897;51.960;5.582;2023-07-13T00:02:38;101027.00;;;17.11;100.00
12987;BME280;58897;51.960;5.582;2023-07-13T00:05:05;101028.50;;;17.14;100.00
12987;BME280;58897;51.960;5.582;2023-07-13T00:07:36;101029.75;;;17.11;100.00
12987;BME280;58897;51.960;5.582;2023-07-13T00:10:03;101029.28;;;17.08;100.00
12987;BME280;58897;51.960;5.582;2023-07-13T00:12:36;101026.06;;;16.98;100.00
12987;BME280;58897;51.960;5.582;2023-07-13T00:15:20;101031.13;;;16.94;100.00
12987;BME280;58897;51.960;5.582;2023-07-13T00:17:50;101027.13;;;16.97;100.00
12987;BME280;58897;51.960;5.582;2023-07-13T00:20:18;101031.63;;;17.11;100.00
12987;BME280;58897;51.960;5.582;2023-07-13T00:22:49;101033.25;;;16.99;100.00
12987;BME280;58897;51.960;5.582;2023-07-13T00:25:16;101034.72;;;17.01;100.00
12987;BME280;58897;51.960;5.582;2023-07-13T00:27:44;101037.53;;;17.14;100.00
12987;BME280;58897;51.960;5.582;2023-07-13T00:30:11;101031.94;;;16.95;100.00
12987;BME280;58897;51.960;5.582;2023-07-13T00:32:38;101025.66;;;16.94;100.00
12987;BME280;58897;51.960;5.582;2023-07-13T00:35:05;101024.97;;;16.86;100.00
12987;BME280;58897;51.960;5.582;2023-07-13T00:37:32;101029.19;;;16.88;100.00
12987;BME280;58897;51.960;5.582;2023-07-13T00:39:59;101029.97;;;16.82;100.00
12987;BME280;58897;51.960;5.582;2023-07-13T00:42:25;101035.28;;;16.90;100.00
12987;BME280;58897;51.960;5.582;2023-07-13T00:47:51;101036.41;;;16.75;100.00
12987;BME280;58897;51.960;5.582;2023-07-13T00:50:19;101043.47;;;16.62;100.00
12987;BME280;58897;51.960;5.582;2023-07-13T00:52:52;101032.84;;;16.74;100.00
12987;BME280;58897;51.960;5.582;2023-07-13T00:55:21;101036.03;;;16.78;100.00
12987;BME280;58897;51.960;5.582;2023-07-13T00:57:48;101042.97;;;16.52;100.00
12987;BME280;58897;51.960;5.582;2023-07-13T01:00:15;101033.41;;;16.63;100.00
12987;BME280;58897;51.960;5.582;2023-07-13T01:02:48;101045.19;;;16.49;100.00
12987;BME280;58897;51.960;5.582;2023-07-13T01:05:18;101042.00;;;16.45;100.00
12987;BME280;58897;51.960;5.582;2023-07-13T01:07:47;101034.91;;;16.44;100.00
12987;BME280;58897;51.960;5.582;2023-07-13T01:10:15;101043.06;;;16.44;100.00
12987;BME280;58897;51.960;5.582;2023-07-13T01:12:42;101045.34;;;16.41;100.00
12987;BME280;58897;51.960;5.582;2023-07-13T01:15:38;101047.28;;;16.47;100.00
12987;BME280;58897;51.960;5.582;2023-07-13T01:18:08;101057.03;;;16.56;100.00
12987;BME280;58897;51.960;5.582;2023-07-13T01:20:36;101054.56;;;16.40;100.00
12987;BME280;58897;51.960;5.582;2023-07-13T01:23:08;101051.19;;;16.38;100.00
12987;BME280;58897;51.960;5.582;2023-07-13T01:25:36;101041.97;;;16.39;100.00
12987;BME280;58897;51.960;5.582;2023-07-13T01:28:04;101043.59;;;16.33;100.00
12987;BME280;58897;51.960;5.582;2023-07-13T01:30:31;101047.69;;;16.44;100.00
12987;BME280;58897;51.960;5.582;2023-07-13T01:32:58;101044.31;;;16.21;100.00
12987;BME280;58897;51.960;5.582;2023-07-13T01:35:25;101035.88;;;16.16;100.00
12987;BME280;58897;51.960;5.582;2023-07-13T01:37:53;101045.94;;;16.15;100.00
12987;BME280;58897;51.960;5.582;2023-07-13T01:40:20;101048.59;;;16.30;100.00
12987;BME280;58897;51.960;5.582;2023-07-13T01:42:47;101057.81;;;16.29;100.00
12987;BME280;58897;51.960;5.582;2023-07-13T01:45:14;101056.50;;;16.25;100.00
12987;BME280;58897;51.960;5.582;2023-07-13T01:47:41;101057.88;;;16.35;100.00
12987;BME280;58897;51.960;5.582;2023-07-13T01:50:08;101054.38;;;16.41;100.00
12987;BME280;58897;51.960;5.582;2023-07-13T01:52:34;101059.22;;;16.25;100.00
12987;BME280;58897;51.960;5.582;2023-07-13T01:55:01;101049.19;;;16.25;100.00
12987;BME280;58897;51.960;5.582;2023-07-13T01:57:28;101057.56;;;16.24;100.00
12987;BME280;58897;51.960;5.582;2023-07-13T01:59:55;101049.81;;;16.27;100.00
12987;BME280;58897;51.960;5.582;2023-07-13T02:02:21;101052.63;;;16.13;100.00
12987;BME280;58897;51.960;5.582;2023-07-13T02:04:48;101049.75;;;16.21;100.00
12987;BME280;58897;51.960;5.582;2023-07-13T02:07:15;101052.09;;;16.24;100.00
12987;BME280;58897;51.960;5.582;2023-07-13T02:09:41;101058.78;;;16.21;100.00
12987;BME280;58897;51.960;5.582;2023-07-13T02:12:08;101053.38;;;16.06;100.00
12987;BME280;58897;51.960;5.582;2023-07-13T02:14:36;101065.00;;;15.94;100.00
12987;BME280;58897;51.960;5.582;2023-07-13T02:17:02;101066.84;;;16.08;100.00
12987;BME280;58897;51.960;5.582;2023-07-13T02:19:30;101061.44;;;16.15;100.00
12987;BME280;58897;51.960;5.582;2023-07-13T02:21:59;101058.44;;;16.10;100.00
12987;BME280;58897;51.960;5.582;2023-07-13T02:24:26;101056.19;;;16.13;100.00
12987;BME280;58897;51.960;5.582;2023-07-13T02:26:53;101059.47;;;16.08;100.00
12987;BME280;58897;51.960;5.582;2023-07-13T02:29:20;101060.72;;;15.85;100.00
12987;BME280;58897;51.960;5.582;2023-07-13T02:31:47;101066.59;;;15.88;100.00
12987;BME280;58897;51.960;5.582;2023-07-13T02:34:13;101069.69;;;16.00;100.00
12987;BME280;58897;51.960;5.582;2023-07-13T02:36:40;101068.72;;;16.08;100.00
12987;BME280;58897;51.960;5.582;2023-07-13T02:39:07;101073.19;;;16.15;100.00
12987;BME280;58897;51.960;5.582;2023-07-13T02:41:35;101063.31;;;16.14;100.00
12987;BME280;58897;51.960;5.582;2023-07-13T02:44:02;101061.56;;;16.06;100.00
12987;BME280;58897;51.960;5.582;2023-07-13T02:46:36;101071.97;;;15.82;100.00
12987;BME280;58897;51.960;5.582;2023-07-13T02:49:03;101070.06;;;15.97;100.00
12987;BME280;58897;51.960;5.582;2023-07-13T02:51:30;101063.22;;;15.86;100.00
12987;BME280;58897;51.960;5.582;2023-07-13T02:54:04;101069.69;;;15.64;100.00
12987;BME280;58897;51.960;5.582;2023-07-13T02:56:32;101071.03;;;15.75;100.00
12987;BME280;58897;51.960;5.582;2023-07-13T02:58:59;101075.56;;;15.68;100.00
12987;BME280;58897;51.960;5.582;2023-07-13T03:01:25;101084.78;;;15.67;100.00
12987;BME280;58897;51.960;5.582;2023-07-13T03:03:52;101084.41;;;15.55;100.00
12987;BME280;58897;51.960;5.582;2023-07-13T03:06:25;101091.25;;;15.66;100.00
12987;BME280;58897;51.960;5.582;2023-07-13T03:08:51;101093.41;;;15.70;100.00
12987;BME280;58897;51.960;5.582;2023-07-13T03:11:20;101088.44;;;15.59;100.00
12987;BME280;58897;51.960;5.582;2023-07-13T03:13:47;101096.91;;;15.64;100.00
12987;BME280;58897;51.960;5.582;2023-07-13T03:16:15;101095.09;;;15.57;100.00
12987;BME280;58897;51.960;5.582;2023-07-13T03:18:46;101089.19;;;15.68;100.00
12987;BME280;58897;51.960;5.582;2023-07-13T03:21:13;101093.72;;;15.61;100.00
12987;BME280;58897;51.960;5.582;2023-07-13T03:23:40;101097.47;;;15.60;100.00
12987;BME280;58897;51.960;5.582;2023-07-13T03:26:12;101097.66;;;15.58;100.00
12987;BME280;58897;51.960;5.582;2023-07-13T03:28:40;101098.41;;;15.67;100.00
12987;BME280;58897;51.960;5.582;2023-07-13T03:31:18;101105.28;;;15.48;100.00
12987;BME280;58897;51.960;5.582;2023-07-13T03:33:45;101111.06;;;15.45;100.00
12987;BME280;58897;51.960;5.582;2023-07-13T03:36:17;101105.09;;;15.64;100.00
12987;BME280;58897;51.960;5.582;2023-07-13T03:38:57;101114.75;;;15.52;100.00
12987;BME280;58897;51.960;5.582;2023-07-13T03:41:24;101111.44;;;15.57;100.00
12987;BME280;58897;51.960;5.582;2023-07-13T03:43:52;101123.16;;;15.42;100.00
12987;BME280;58897;51.960;5.582;2023-07-13T03:46:19;101114.00;;;15.58;100.00
12987;BME280;58897;51.960;5.582;2023-07-13T03:48:47;101123.75;;;15.38;100.00
12987;BME280;58897;51.960;5.582;2023-07-13T03:51:15;101114.44;;;15.62;100.00
12987;BME280;58897;51.960;5.582;2023-07-13T03:53:44;101127.34;;;15.53;100.00
12987;BME280;58897;51.960;5.582;2023-07-13T03:56:11;101138.22;;;15.53;100.00
12987;BME280;58897;51.960;5.582;2023-07-13T03:58:41;101131.34;;;15.57;100.00
12987;BME280;58897;51.960;5.582;2023-07-13T04:01:10;101134.09;;;15.57;100.00
12987;BME280;58897;51.960;5.582;2023-07-13T04:03:37;101151.28;;;15.58;100.00
12987;BME280;58897;51.960;5.582;2023-07-13T04:06:06;101144.25;;;15.49;100.00
12987;BME280;58897;51.960;5.582;2023-07-13T04:08:36;101142.72;;;15.46;100.00
12987;BME280;58897;51.960;5.582;2023-07-13T04:11:04;101140.66;;;15.48;100.00
12987;BME280;58897;51.960;5.582;2023-07-13T04:13:31;101153.50;;;15.54;100.00
12987;BME280;58897;51.960;5.582;2023-07-13T04:15:57;101139.53;;;15.72;100.00
12987;BME280;58897;51.960;5.582;2023-07-13T04:18:24;101141.84;;;15.75;100.00
12987;BME280;58897;51.960;5.582;2023-07-13T04:20:51;101147.41;;;15.81;100.00
12987;BME280;58897;51.960;5.582;2023-07-13T04:23:18;101142.97;;;15.80;100.00
12987;BME280;58897;51.960;5.582;2023-07-13T04:25:46;101149.66;;;15.78;100.00
12987;BME280;58897;51.960;5.582;2023-07-13T04:28:16;101145.50;;;15.96;100.00
12987;BME280;58897;51.960;5.582;2023-07-13T04:30:44;101167.59;;;15.72;100.00
12987;BME280;58897;51.960;5.582;2023-07-13T04:33:11;101156.22;;;15.98;100.00
12987;BME280;58897;51.960;5.582;2023-07-13T04:35:38;101158.09;;;15.97;100.00
12987;BME280;58897;51.960;5.582;2023-07-13T04:38:05;101156.50;;;15.88;100.00
12987;BME280;58897;51.960;5.582;2023-07-13T04:40:36;101160.06;;;15.89;100.00
12987;BME280;58897;51.960;5.582;2023-07-13T04:43:03;101170.72;;;15.69;100.00
12987;BME280;58897;51.960;5.582;2023-07-13T04:45:30;101172.09;;;15.94;100.00
12987;BME280;58897;51.960;5.582;2023-07-13T04:47:59;101154.03;;;15.93;100.00
12987;BME280;58897;51.960;5.582;2023-07-13T04:50:26;101155.19;;;15.84;100.00
12987;BME280;58897;51.960;5.582;2023-07-13T04:52:53;101152.38;;;15.92;100.00
12987;BME280;58897;51.960;5.582;2023-07-13T04:55:20;101161.19;;;15.94;100.00
12987;BME280;58897;51.960;5.582;2023-07-13T04:57:47;101162.38;;;16.06;100.00
12987;BME280;58897;51.960;5.582;2023-07-13T05:00:16;101158.81;;;16.06;100.00
12987;BME280;58897;51.960;5.582;2023-07-13T05:02:45;101165.75;;;16.08;100.00
12987;BME280;58897;51.960;5.582;2023-07-13T05:05:17;101168.47;;;16.23;100.00
12987;BME280;58897;51.960;5.582;2023-07-13T05:07:44;101167.09;;;16.13;100.00
12987;BME280;58897;51.960;5.582;2023-07-13T05:10:14;101177.66;;;16.22;100.00
12987;BME280;58897;51.960;5.582;2023-07-13T05:12:41;101169.88;;;16.19;100.00
12987;BME280;58897;51.960;5.582;2023-07-13T05:15:08;101182.63;;;16.33;100.00
12987;BME280;58897;51.960;5.582;2023-07-13T05:17:35;101171.56;;;16.20;100.00
12987;BME280;58897;51.960;5.582;2023-07-13T05:20:02;101175.03;;;16.29;100.00
12987;BME280;58897;51.960;5.582;2023-07-13T05:22:32;101173.38;;;16.49;100.00
12987;BME280;58897;51.960;5.582;2023-07-13T05:25:06;101178.66;;;16.36;100.00
12987;BME280;58897;51.960;5.582;2023-07-13T05:27:34;101175.72;;;16.16;100.00
12987;BME280;58897;51.960;5.582;2023-07-13T05:30:02;101179.41;;;16.44;100.00
12987;BME280;58897;51.960;5.582;2023-07-13T05:32:29;101186.25;;;16.40;100.00
12987;BME280;58897;51.960;5.582;2023-07-13T05:34:56;101184.72;;;16.31;100.00
12987;BME280;58897;51.960;5.582;2023-07-13T05:37:22;101187.06;;;16.34;100.00
12987;BME280;58897;51.960;5.582;2023-07-13T05:39:49;101193.91;;;16.30;100.00
12987;BME280;58897;51.960;5.582;2023-07-13T05:42:16;101204.13;;;16.43;100.00
12987;BME280;58897;51.960;5.582;2023-07-13T05:44:42;101201.94;;;16.53;100.00
12987;BME280;58897;51.960;5.582;2023-07-13T05:47:09;101207.38;;;16.67;100.00
12987;BME280;58897;51.960;5.582;2023-07-13T05:49:36;101204.81;;;16.66;100.00
12987;BME280;58897;51.960;5.582;2023-07-13T05:52:03;101210.38;;;16.73;100.00
12987;BME280;58897;51.960;5.582;2023-07-13T05:54:30;101212.69;;;16.54;100.00
12987;BME280;58897;51.960;5.582;2023-07-13T05:56:56;101212.38;;;16.64;100.00
12987;BME280;58897;51.960;5.582;2023-07-13T05:59:23;101220.81;;;16.69;100.00
12987;BME280;58897;51.960;5.582;2023-07-13T06:01:50;101219.53;;;16.65;100.00
12987;BME280;58897;51.960;5.582;2023-07-13T06:04:19;101223.91;;;16.66;100.00
12987;BME280;58897;51.960;5.582;2023-07-13T06:06:47;101215.63;;;16.95;100.00
12987;BME280;58897;51.960;5.582;2023-07-13T06:09:13;101210.53;;;17.13;100.00
12987;BME280;58897;51.960;5.582;2023-07-13T06:11:40;101215.13;;;17.13;100.00
12987;BME280;58897;51.960;5.582;2023-07-13T06:14:07;101220.22;;;16.95;100.00
12987;BME280;58897;51.960;5.582;2023-07-13T06:16:34;101226.88;;;17.07;100.00
12987;BME280;58897;51.960;5.582;2023-07-13T06:19:00;101227.88;;;17.06;100.00
12987;BME280;58897;51.960;5.582;2023-07-13T06:21:27;101229.63;;;17.13;100.00
12987;BME280;58897;51.960;5.582;2023-07-13T06:23:54;101230.34;;;17.22;100.00
12987;BME280;58897;51.960;5.582;2023-07-13T06:26:21;101223.59;;;17.18;100.00
12987;BME280;58897;51.960;5.582;2023-07-13T06:28:47;101240.84;;;17.46;100.00
12987;BME280;58897;51.960;5.582;2023-07-13T06:31:15;101238.53;;;17.50;100.00
12987;BME280;58897;51.960;5.582;2023-07-13T06:33:43;101229.66;;;17.62;100.00
12987;BME280;58897;51.960;5.582;2023-07-13T06:36:11;101230.78;;;17.74;100.00
12987;BME280;58897;51.960;5.582;2023-07-13T06:38:38;101237.28;;;17.73;100.00
12987;BME280;58897;51.960;5.582;2023-07-13T06:41:11;101233.22;;;17.97;100.00
12987;BME280;58897;51.960;5.582;2023-07-13T06:43:39;101238.00;;;17.88;100.00
12987;BME280;58897;51.960;5.582;2023-07-13T06:46:05;101238.06;;;17.95;100.00
12987;BME280;58897;51.960;5.582;2023-07-13T06:48:32;101243.91;;;17.85;100.00
12987;BME280;58897;51.960;5.582;2023-07-13T06:51:03;101241.94;;;17.79;100.00
12987;BME280;58897;51.960;5.582;2023-07-13T06:53:30;101250.13;;;17.52;100.00
12987;BME280;58897;51.960;5.582;2023-07-13T06:55:57;101247.41;;;17.79;100.00
12987;BME280;58897;51.960;5.582;2023-07-13T06:58:24;101247.88;;;17.83;100.00
12987;BME280;58897;51.960;5.582;2023-07-13T07:00:52;101252.28;;;17.84;100.00
12987;BME280;58897;51.960;5.582;2023-07-13T07:03:19;101248.69;;;17.83;100.00
12987;BME280;58897;51.960;5.582;2023-07-13T07:05:46;101249.50;;;18.12;100.00
12987;BME280;58897;51.960;5.582;2023-07-13T07:08:13;101252.97;;;17.93;100.00
12987;BME280;58897;51.960;5.582;2023-07-13T07:10:41;101249.97;;;18.22;100.00
12987;BME280;58897;51.960;5.582;2023-07-13T07:13:08;101260.22;;;18.13;100.00
12987;BME280;58897;51.960;5.582;2023-07-13T07:15:35;101263.19;;;17.84;100.00
12987;BME280;58897;51.960;5.582;2023-07-13T07:18:03;101257.63;;;17.99;100.00
12987;BME280;58897;51.960;5.582;2023-07-13T07:20:30;101253.13;;;18.66;100.00
12987;BME280;58897;51.960;5.582;2023-07-13T07:22:57;101246.13;;;18.57;100.00
12987;BME280;58897;51.960;5.582;2023-07-13T07:25:26;101253.69;;;18.48;100.00
12987;BME280;58897;51.960;5.582;2023-07-13T07:27:54;101253.38;;;18.84;100.00
12987;BME280;58897;51.960;5.582;2023-07-13T07:30:24;101250.06;;;19.35;100.00
12987;BME280;58897;51.960;5.582;2023-07-13T07:32:54;101254.00;;;18.86;100.00
12987;BME280;58897;51.960;5.582;2023-07-13T07:35:23;101254.69;;;19.15;100.00
12987;BME280;58897;51.960;5.582;2023-07-13T07:37:50;101253.59;;;18.89;100.00
12987;BME280;58897;51.960;5.582;2023-07-13T07:40:17;101243.97;;;19.59;100.00
12987;BME280;58897;51.960;5.582;2023-07-13T07:42:47;101248.13;;;20.01;100.00
12987;BME280;58897;51.960;5.582;2023-07-13T07:45:14;101239.78;;;20.33;100.00
12987;BME280;58897;51.960;5.582;2023-07-13T07:47:41;101247.13;;;19.76;100.00
12987;BME280;58897;51.960;5.582;2023-07-13T07:50:08;101240.81;;;19.29;100.00
12987;BME280;58897;51.960;5.582;2023-07-13T07:52:35;101241.44;;;19.70;100.00
12987;BME280;58897;51.960;5.582;2023-07-13T07:55:04;101244.84;;;20.37;100.00
12987;BME280;58897;51.960;5.582;2023-07-13T07:57:35;101229.97;;;20.64;100.00
12987;BME280;58897;51.960;5.582;2023-07-13T08:00:05;101231.13;;;21.12;100.00
12987;BME280;58897;51.960;5.582;2023-07-13T08:02:35;101221.91;;;21.00;100.00
12987;BME280;58897;51.960;5.582;2023-07-13T08:05:05;101231.34;;;20.79;100.00
12987;BME280;58897;51.960;5.582;2023-07-13T08:07:36;101230.38;;;21.30;100.00
12987;BME280;58897;51.960;5.582;2023-07-13T08:10:07;101237.97;;;20.97;100.00
12987;BME280;58897;51.960;5.582;2023-07-13T08:12:38;101249.97;;;20.13;100.00
12987;BME280;58897;51.960;5.582;2023-07-13T08:15:14;101249.63;;;19.97;100.00
12987;BME280;58897;51.960;5.582;2023-07-13T08:17:42;101248.81;;;19.70;100.00
12987;BME280;58897;51.960;5.582;2023-07-13T08:20:11;101239.97;;;19.61;100.00
12987;BME280;58897;51.960;5.582;2023-07-13T08:22:39;101245.63;;;19.21;100.00
12987;BME280;58897;51.960;5.582;2023-07-13T08:25:06;101243.47;;;19.95;100.00
12987;BME280;58897;51.960;5.582;2023-07-13T08:27:36;101223.44;;;21.27;100.00
12987;BME280;58897;51.960;5.582;2023-07-13T08:30:04;101225.19;;;21.15;100.00
12987;BME280;58897;51.960;5.582;2023-07-13T08:32:46;101227.91;;;20.90;100.00
12987;BME280;58897;51.960;5.582;2023-07-13T08:35:13;101221.25;;;22.69;100.00
12987;BME280;58897;51.960;5.582;2023-07-13T08:37:41;101227.59;;;22.52;100.00
12987;BME280;58897;51.960;5.582;2023-07-13T08:40:11;101227.94;;;22.26;100.00
12987;BME280;58897;51.960;5.582;2023-07-13T08:42:46;101218.53;;;23.22;100.00
12987;BME280;58897;51.960;5.582;2023-07-13T08:45:21;101227.13;;;20.77;100.00
12987;BME280;58897;51.960;5.582;2023-07-13T08:47:53;101219.59;;;21.53;100.00
12987;BME280;58897;51.960;5.582;2023-07-13T08:50:25;101225.88;;;21.60;100.00
12987;BME280;58897;51.960;5.582;2023-07-13T08:52:54;101218.09;;;21.75;100.00
12987;BME280;58897;51.960;5.582;2023-07-13T08:55:29;101232.94;;;21.74;100.00
12987;BME280;58897;51.960;5.582;2023-07-13T08:58:09;101229.63;;;21.16;100.00
12987;BME280;58897;51.960;5.582;2023-07-13T09:03:40;101263.19;;;20.43;100.00
12987;BME280;58897;51.960;5.582;2023-07-13T09:06:14;101256.47;;;20.39;100.00
12987;BME280;58897;51.960;5.582;2023-07-13T09:08:54;101267.31;;;20.01;100.00
12987;BME280;58897;51.960;5.582;2023-07-13T09:11:45;101273.44;;;19.90;100.00
12987;BME280;58897;51.960;5.582;2023-07-13T09:17:08;101277.69;;;19.40;100.00
12987;BME280;58897;51.960;5.582;2023-07-13T09:19:43;101280.81;;;19.10;100.00
12987;BME280;58897;51.960;5.582;2023-07-13T09:22:17;101285.03;;;19.13;100.00
12987;BME280;58897;51.960;5.582;2023-07-13T09:24:57;101284.66;;;18.62;100.00
12987;BME280;58897;51.960;5.582;2023-07-13T09:27:31;101274.13;;;18.59;100.00
12987;BME280;58897;51.960;5.582;2023-07-13T09:32:45;101284.34;;;18.85;100.00
12987;BME280;58897;51.960;5.582;2023-07-13T09:35:20;101288.41;;;19.15;100.00
12987;BME280;58897;51.960;5.582;2023-07-13T09:37:51;101285.69;;;19.81;100.00
12987;BME280;58897;51.960;5.582;2023-07-13T09:40:42;101255.19;;;21.91;100.00
12987;BME280;58897;51.960;5.582;2023-07-13T09:43:16;101263.00;;;22.48;100.00
12987;BME280;58897;51.960;5.582;2023-07-13T09:45:46;101262.25;;;21.80;100.00
12987;BME280;58897;51.960;5.582;2023-07-13T09:48:16;101254.56;;;23.21;100.00
12987;BME280;58897;51.960;5.582;2023-07-13T09:50:44;101261.47;;;23.42;100.00
12987;BME280;58897;51.960;5.582;2023-07-13T09:53:21;101270.13;;;23.91;100.00
12987;BME280;58897;51.960;5.582;2023-07-13T09:55:51;101259.69;;;23.47;100.00
12987;BME280;58897;51.960;5.582;2023-07-13T09:58:21;101262.56;;;23.11;100.00
12987;BME280;58897;51.960;5.582;2023-07-13T10:01:01;101266.75;;;22.72;100.00
12987;BME280;58897;51.960;5.582;2023-07-13T10:03:35;101268.00;;;20.91;100.00
12987;BME280;58897;51.960;5.582;2023-07-13T10:06:12;101281.56;;;20.42;100.00
12987;BME280;58897;51.960;5.582;2023-07-13T10:08:39;101277.28;;;20.53;100.00
12987;BME280;58897;51.960;5.582;2023-07-13T10:11:20;101274.91;;;20.63;100.00
12987;BME280;58897;51.960;5.582;2023-07-13T10:14:02;101281.81;;;20.21;100.00
12987;BME280;58897;51.960;5.582;2023-07-13T10:16:35;101282.84;;;20.40;100.00
12987;BME280;58897;51.960;5.582;2023-07-13T10:19:12;101285.31;;;20.54;100.00
12987;BME280;58897;51.960;5.582;2023-07-13T10:21:57;101280.69;;;20.48;100.00
12987;BME280;58897;51.960;5.582;2023-07-13T10:24:30;101277.41;;;21.15;100.00
12987;BME280;58897;51.960;5.582;2023-07-13T10:27:16;101272.53;;;23.65;100.00
12987;BME280;58897;51.960;5.582;2023-07-13T10:30:06;101274.28;;;24.40;100.00
12987;BME280;58897;51.960;5.582;2023-07-13T10:32:42;101275.16;;;22.77;100.00
12987;BME280;58897;51.960;5.582;2023-07-13T10:35:12;101288.38;;;22.14;100.00
12987;BME280;58897;51.960;5.582;2023-07-13T10:37:54;101283.19;;;22.06;100.00
12987;BME280;58897;51.960;5.582;2023-07-13T10:40:33;101289.53;;;22.79;100.00
12987;BME280;58897;51.960;5.582;2023-07-13T10:43:05;101280.66;;;24.92;100.00
12987;BME280;58897;51.960;5.582;2023-07-13T10:45:36;101288.69;;;24.94;100.00
12987;BME280;58897;51.960;5.582;2023-07-13T10:48:05;101284.66;;;23.75;100.00
12987;BME280;58897;51.960;5.582;2023-07-13T10:50:40;101294.63;;;24.00;100.00
12987;BME280;58897;51.960;5.582;2023-07-13T10:53:19;101306.75;;;22.74;100.00
12987;BME280;58897;51.960;5.582;2023-07-13T10:58:20;101298.66;;;23.62;100.00
12987;BME280;58897;51.960;5.582;2023-07-13T11:03:48;101309.53;;;22.13;100.00
12987;BME280;58897;51.960;5.582;2023-07-13T11:09:03;101310.59;;;24.84;100.00
12987;BME280;58897;51.960;5.582;2023-07-13T11:11:43;101306.34;;;23.83;100.00
12987;BME280;58897;51.960;5.582;2023-07-13T11:14:39;101312.94;;;24.40;100.00
12987;BME280;58897;51.960;5.582;2023-07-13T11:22:52;101313.13;;;24.85;100.00
12987;BME280;58897;51.960;5.582;2023-07-13T11:25:34;101326.41;;;24.02;100.00
12987;BME280;58897;51.960;5.582;2023-07-13T11:40:55;101314.00;;;23.17;100.00
12987;BME280;58897;51.960;5.582;2023-07-13T11:43:23;101320.06;;;23.07;100.00
12987;BME280;58897;51.960;5.582;2023-07-13T11:45:50;101317.44;;;24.18;100.00
12987;BME280;58897;51.960;5.582;2023-07-13T11:48:20;101304.19;;;25.68;100.00
12987;BME280;58897;51.960;5.582;2023-07-13T11:50:58;101308.81;;;26.56;100.00
12987;BME280;58897;51.960;5.582;2023-07-13T11:53:28;101307.31;;;26.26;90.08
12987;BME280;58897;51.960;5.582;2023-07-13T11:55:57;101313.66;;;25.27;98.24
12987;BME280;58897;51.960;5.582;2023-07-13T11:58:26;101319.09;;;26.17;88.67
12987;BME280;58897;51.960;5.582;2023-07-13T12:00:59;101314.31;;;25.96;92.50
12987;BME280;58897;51.960;5.582;2023-07-13T12:03:28;101297.59;;;26.67;94.42
12987;BME280;58897;51.960;5.582;2023-07-13T12:06:01;101298.16;;;26.26;92.27
12987;BME280;58897;51.960;5.582;2023-07-13T12:08:29;101302.31;;;25.57;96.68
12987;BME280;58897;51.960;5.582;2023-07-13T12:11:03;101300.63;;;25.56;100.00
12987;BME280;58897;51.960;5.582;2023-07-13T12:13:37;101301.16;;;25.25;100.00
12987;BME280;58897;51.960;5.582;2023-07-13T12:16:15;101304.75;;;26.42;94.79
12987;BME280;58897;51.960;5.582;2023-07-13T12:18:44;101305.63;;;24.46;98.96
12987;BME280;58897;51.960;5.582;2023-07-13T12:21:14;101307.31;;;24.35;100.00
12987;BME280;58897;51.960;5.582;2023-07-13T12:23:47;101304.81;;;24.85;99.90
12987;BME280;58897;51.960;5.582;2023-07-13T12:26:17;101298.88;;;26.16;91.28
12987;BME280;58897;51.960;5.582;2023-07-13T12:28:54;101304.72;;;26.03;94.71
12987;BME280;58897;51.960;5.582;2023-07-13T12:31:36;101302.72;;;25.99;91.38
12987;BME280;58897;51.960;5.582;2023-07-13T12:34:11;101305.94;;;25.91;94.00
12987;BME280;58897;51.960;5.582;2023-07-13T12:39:35;101309.72;;;27.05;80.73
12987;BME280;58897;51.960;5.582;2023-07-13T12:44:53;101313.09;;;26.08;78.86
12987;BME280;58897;51.960;5.582;2023-07-13T12:47:21;101308.63;;;25.52;78.16
12987;BME280;58897;51.960;5.582;2023-07-13T12:49:53;101331.31;;;24.46;92.88
12987;BME280;58897;51.960;5.582;2023-07-13T12:52:24;101312.84;;;26.26;88.28
12987;BME280;58897;51.960;5.582;2023-07-13T12:55:08;101315.81;;;26.20;81.22
12987;BME280;58897;51.960;5.582;2023-07-13T12:57:54;101329.91;;;25.68;81.15
12987;BME280;58897;51.960;5.582;2023-07-13T13:02:56;101311.53;;;26.94;77.82
12987;BME280;58897;51.960;5.582;2023-07-13T13:05:44;101315.28;;;26.61;79.03
12987;BME280;58897;51.960;5.582;2023-07-13T13:08:13;101320.59;;;25.91;79.28
12987;BME280;58897;51.960;5.582;2023-07-13T13:10:40;101311.34;;;26.35;79.33
12987;BME280;58897;51.960;5.582;2023-07-13T13:13:07;101307.81;;;26.83;78.34
12987;BME280;58897;51.960;5.582;2023-07-13T13:15:35;101324.16;;;26.63;76.18
12987;BME280;58897;51.960;5.582;2023-07-13T13:18:16;101314.19;;;26.41;79.30
12987;BME280;58897;51.960;5.582;2023-07-13T13:20:44;101322.31;;;26.90;78.45
12987;BME280;58897;51.960;5.582;2023-07-13T13:23:14;101322.13;;;26.97;78.94
12987;BME280;58897;51.960;5.582;2023-07-13T13:25:43;101315.97;;;26.52;80.05
12987;BME280;58897;51.960;5.582;2023-07-13T13:28:17;101326.06;;;26.79;81.39
12987;BME280;58897;51.960;5.582;2023-07-13T13:30:47;101318.81;;;27.00;75.33
12987;BME280;58897;51.960;5.582;2023-07-13T13:33:17;101323.53;;;27.00;74.77
12987;BME280;58897;51.960;5.582;2023-07-13T13:35:47;101318.84;;;25.85;79.47
12987;BME280;58897;51.960;5.582;2023-07-13T13:38:15;101325.94;;;25.98;85.54
12987;BME280;58897;51.960;5.582;2023-07-13T13:40:44;101328.72;;;25.98;84.01